Time;durP1;ratioP1;P1;durP2;ratioP2;P2;SDS_P1;SDS_P2;PMS_P1;PMS_P2;Temp;Humidity;BMP_temperature;BMP_pressure;BME280_temperature;BME280_humidity;BME280_pressure;Samples;Min_cycle;Max_cycle;Signal;HPM_P1;HPM_P2
2022/07/22 00:02:02;;;;;;;10.80;2.75;;;;;;;19.17;58.42;102248.91;5169214;28;20968;-54
2022/07/22 00:04:34;;;;;;;9.48;2.85;;;;;;;19.11;58.72;102257.63;5158763;28;20908;-57
2022/07/22 00:07:06;;;;;;;12.90;3.33;;;;;;;19.09;58.57;102255.09;5168079;28;20422;-56
2022/07/22 00:09:41;;;;;;;8.70;2.25;;;;;;;19.08;58.75;102250.75;5157322;28;20435;-58
2022/07/22 00:12:13;;;;;;;10.93;2.55;;;;;;;19.09;58.64;102248.91;5173130;28;20503;-53
2022/07/22 00:14:45;;;;;;;8.50;2.92;;;;;;;19.18;58.79;102253.25;5169848;28;20424;-56
2022/07/22 00:17:18;;;;;;;14.75;3.17;;;;;;;19.22;58.69;102254.56;5168455;28;20907;-56
2022/07/22 00:19:50;;;;;;;10.82;2.95;;;;;;;19.26;58.73;102255.91;5167863;28;20455;-56
2022/07/22 00:22:22;;;;;;;9.77;2.60;;;;;;;19.26;58.55;102255.91;5168998;28;20516;-57
2022/07/22 00:24:56;;;;;;;15.32;3.33;;;;;;;19.24;58.53;102252.56;5170583;28;20435;-56
2022/07/22 00:27:28;;;;;;;13.03;2.80;;;;;;;19.22;58.70;102249.19;5169565;28;20408;-56
2022/07/22 00:30:01;;;;;;;14.53;3.10;;;;;;;19.24;58.68;102249.88;5169829;28;20441;-55
2022/07/22 00:32:33;;;;;;;10.95;3.00;;;;;;;19.25;58.44;102248.84;5168195;28;20769;-55
2022/07/22 00:35:07;;;;;;;8.50;2.67;;;;;;;19.27;58.59;102244.16;5176062;28;20422;-54
2022/07/22 00:37:40;;;;;;;13.20;3.45;;;;;;;19.25;58.81;102248.84;5166637;28;20409;-56
2022/07/22 00:40:14;;;;;;;9.80;3.42;;;;;;;19.24;58.77;102241.00;5165688;28;20425;-53
2022/07/22 00:42:47;;;;;;;15.63;3.73;;;;;;;19.24;58.76;102247.19;5165894;28;20688;-54
2022/07/22 00:45:19;;;;;;;10.38;3.40;;;;;;;19.25;58.97;102243.50;5166522;28;20440;-57
2022/07/22 00:47:51;;;;;;;20.30;3.58;;;;;;;19.23;58.76;102245.53;5171595;28;20926;-57
2022/07/22 00:50:24;;;;;;;9.35;3.25;;;;;;;19.20;58.74;102237.84;5165254;28;20828;-55
2022/07/22 00:52:56;;;;;;;12.32;3.78;;;;;;;19.27;58.88;102240.66;5170393;28;20432;-55
2022/07/22 00:55:31;;;;;;;12.52;3.05;;;;;;;19.24;58.75;102232.97;5169696;28;20393;-55
2022/07/22 00:58:04;;;;;;;16.40;3.70;;;;;;;19.16;58.73;102212.41;5167826;28;20499;-57
2022/07/22 01:00:37;;;;;;;9.88;3.22;;;;;;;19.33;58.71;102239.97;5167372;28;20865;-56
2022/07/22 01:03:09;;;;;;;8.35;3.40;;;;;;;19.32;58.72;102241.81;5163513;28;20427;-59
2022/07/22 01:05:41;;;;;;;11.80;3.78;;;;;;;19.29;58.83;102239.50;5167511;28;20442;-54
2022/07/22 01:08:13;;;;;;;7.73;3.23;;;;;;;19.17;58.87;102232.84;5170937;28;20416;-55
2022/07/22 01:10:47;;;;;;;20.60;3.80;;;;;;;19.15;59.05;102237.50;5168471;28;20812;-56
2022/07/22 01:13:20;;;;;;;13.30;4.10;;;;;;;19.19;59.02;102236.16;5168976;28;20442;-56
2022/07/22 01:15:52;;;;;;;10.90;3.75;;;;;;;19.15;58.97;102234.00;5169281;28;20526;-57
2022/07/22 01:18:24;;;;;;;16.23;4.27;;;;;;;19.17;58.98;102240.88;5167348;28;20505;-58
2022/07/22 01:20:58;;;;;;;14.45;3.85;;;;;;;19.19;59.00;102233.47;5166545;28;20430;-58
2022/07/22 01:23:31;;;;;;;10.60;3.13;;;;;;;19.24;58.84;102243.69;5164994;28;20423;-58
2022/07/22 01:26:05;;;;;;;11.43;2.80;;;;;;;19.23;58.83;102233.97;5167433;28;20895;-58
2022/07/22 01:28:37;;;;;;;8.90;2.53;;;;;;;19.25;58.82;102238.13;5172811;28;20507;-58
2022/07/22 01:31:10;;;;;;;9.67;2.60;;;;;;;19.21;58.86;102239.50;5169146;28;20576;-59
2022/07/22 01:33:43;;;;;;;10.32;2.55;;;;;;;19.20;59.03;102235.16;5171358;28;20426;-57
2022/07/22 01:36:17;;;;;;;7.15;2.60;;;;;;;19.15;58.94;102232.16;5171112;28;20415;-58
2022/07/22 01:38:50;;;;;;;13.95;2.47;;;;;;;19.15;59.15;102225.97;5170725;28;20430;-57
2022/07/22 01:41:22;;;;;;;11.05;2.58;;;;;;;19.16;59.00;102231.13;5171236;28;20506;-59
2022/07/22 01:43:54;;;;;;;11.68;2.60;;;;;;;19.14;58.97;102227.81;5171155;28;20423;-55
2022/07/22 01:46:27;;;;;;;9.75;2.47;;;;;;;19.08;59.00;102223.16;5172923;28;20507;-58
2022/07/22 01:48:59;;;;;;;10.82;2.40;;;;;;;18.97;58.96;102212.81;5171331;28;20857;-58
2022/07/22 01:51:33;;;;;;;12.90;2.70;;;;;;;18.98;59.05;102214.47;5170344;28;20867;-57
2022/07/22 01:54:05;;;;;;;10.32;2.85;;;;;;;18.96;59.26;102216.50;5174023;28;20425;-58
2022/07/22 01:56:38;;;;;;;8.65;3.00;;;;;;;18.94;59.05;102213.16;5168314;28;20416;-52
2022/07/22 01:59:10;;;;;;;9.60;2.55;;;;;;;18.91;59.14;102216.16;5172181;28;20495;-60
2022/07/22 02:01:43;;;;;;;9.00;2.38;;;;;;;18.71;59.17;102187.06;5172175;28;20421;-60
2022/07/22 02:04:15;;;;;;;8.20;2.22;;;;;;;18.71;59.06;102181.72;5170177;28;20518;-58
2022/07/22 02:06:49;;;;;;;9.32;2.25;;;;;;;18.89;58.97;102206.47;5172555;28;20424;-57
2022/07/22 02:09:21;;;;;;;7.90;2.58;;;;;;;18.89;59.08;102211.81;5172344;28;20932;-59
2022/07/22 02:11:54;;;;;;;8.10;2.73;;;;;;;18.94;58.98;102207.78;5175737;28;20553;-58
2022/07/22 02:14:26;;;;;;;10.75;2.65;;;;;;;18.98;58.87;102214.47;5171384;28;20504;-56
2022/07/22 02:16:58;;;;;;;10.70;1.90;;;;;;;18.99;58.80;102219.66;5178848;28;20442;-60
2022/07/22 02:19:31;;;;;;;11.98;3.78;;;;;;;19.01;58.87;102219.47;5173023;28;20424;-55
2022/07/22 02:22:04;;;;;;;19.60;2.60;;;;;;;19.03;58.78;102217.47;5170765;28;20505;-61
2022/07/22 02:24:37;;;;;;;8.13;1.95;;;;;;;19.08;58.72;102209.75;5176385;28;20495;-60
2022/07/22 02:27:09;;;;;;;12.70;2.63;;;;;;;19.11;58.68;102214.78;5161990;28;20919;-60
2022/07/22 02:29:41;;;;;;;8.90;2.42;;;;;;;19.12;58.86;102211.09;5170479;28;20441;-57
2022/07/22 02:32:14;;;;;;;10.55;2.33;;;;;;;19.07;58.80;102197.38;5171394;28;20683;-54
2022/07/22 02:34:46;;;;;;;7.15;2.10;;;;;;;19.11;58.72;102209.41;5171515;28;20441;-57
2022/07/22 02:37:20;;;;;;;11.85;2.42;;;;;;;19.16;58.73;102212.41;5169421;28;20417;-56
2022/07/22 02:39:52;;;;;;;6.95;1.80;;;;;;;19.17;58.67;102214.09;5168388;28;20413;-57
2022/07/22 02:42:25;;;;;;;8.80;2.40;;;;;;;19.17;58.54;102208.72;5167853;28;20451;-56
2022/07/22 02:44:57;;;;;;;7.95;2.00;;;;;;;19.17;58.67;102208.72;5170106;28;20531;-56
2022/07/22 02:47:29;;;;;;;7.80;2.10;;;;;;;19.08;58.67;102193.69;5170981;28;20461;-58
2022/07/22 02:50:02;;;;;;;13.73;2.33;;;;;;;19.15;58.73;102210.72;5172307;28;20416;-56
2022/07/22 02:52:36;;;;;;;5.20;1.95;;;;;;;19.18;58.56;102218.44;5170019;28;20937;-56
2022/07/22 02:55:09;;;;;;;5.82;2.10;;;;;;;19.16;58.55;102207.03;5166683;28;20785;-59
2022/07/22 02:57:42;;;;;;;7.85;1.92;;;;;;;19.19;58.67;102217.41;5168870;28;20420;-57
2022/07/22 03:00:16;;;;;;;10.55;2.20;;;;;;;19.14;58.56;102203.72;5170231;28;20962;-56
2022/07/22 03:02:48;;;;;;;6.47;2.17;;;;;;;19.17;58.41;102208.72;5167619;28;20409;-57
2022/07/22 03:05:20;;;;;;;9.45;2.58;;;;;;;19.19;58.64;102212.06;5169914;28;20535;-58
2022/07/22 03:07:54;;;;;;;9.65;2.00;;;;;;;19.19;58.50;102206.69;5169245;28;20436;-56
2022/07/22 03:10:26;;;;;;;5.45;2.10;;;;;;;19.20;58.30;102207.53;5169234;28;20794;-58
2022/07/22 03:12:59;;;;;;;6.32;1.88;;;;;;;19.18;58.40;102209.56;5171406;28;20423;-56
2022/07/22 03:15:31;;;;;;;5.72;1.58;;;;;;;19.20;58.20;102211.06;5169643;28;20423;-55
2022/07/22 03:18:04;;;;;;;8.48;2.03;;;;;;;19.22;58.24;102216.22;5168724;28;20417;-56
2022/07/22 03:20:36;;;;;;;6.70;1.92;;;;;;;19.21;58.40;102215.41;5163640;28;20412;-56
2022/07/22 03:23:10;;;;;;;6.40;1.70;;;;;;;19.22;57.94;102219.75;5168438;28;20512;-59
2022/07/22 03:25:42;;;;;;;3.37;1.10;;;;;;;19.20;58.00;102218.25;5170984;28;20592;-56
2022/07/22 03:28:15;;;;;;;7.80;1.60;;;;;;;19.10;57.63;102207.72;5170909;28;20905;-53
2022/07/22 03:30:47;;;;;;;4.55;1.33;;;;;;;19.19;57.79;102220.09;5169290;28;20422;-57
2022/07/22 03:33:19;;;;;;;5.90;1.65;;;;;;;19.04;57.79;102205.75;5170682;28;20426;-58
2022/07/22 03:35:52;;;;;;;6.45;2.03;;;;;;;19.02;57.86;102226.53;5167807;28;20501;-59
2022/07/22 03:38:25;;;;;;;4.40;1.55;;;;;;;18.97;57.65;102220.84;5169965;28;20427;-57
2022/07/22 03:40:58;;;;;;;7.10;1.63;;;;;;;18.98;57.64;102220.66;5165539;28;23218;-58
2022/07/22 03:43:30;;;;;;;9.57;1.70;;;;;;;18.98;57.67;102207.25;5164342;28;20401;-54
2022/07/22 03:46:03;;;;;;;7.05;1.88;;;;;;;18.99;57.54;102210.81;5164193;28;20427;-54
2022/07/22 03:48:35;;;;;;;6.40;1.90;;;;;;;18.99;57.42;102208.13;5169328;28;20433;-56
2022/07/22 03:51:07;;;;;;;8.57;2.15;;;;;;;18.99;57.46;102210.81;5169864;28;20791;-53
2022/07/22 03:53:42;;;;;;;9.23;2.08;;;;;;;19.04;57.17;102209.25;5169211;28;20447;-59
2022/07/22 03:56:15;;;;;;;8.15;2.08;;;;;;;19.01;56.90;102203.41;5165961;28;20529;-56
2022/07/22 03:58:47;;;;;;;7.35;1.92;;;;;;;19.08;56.99;102204.41;5171015;28;20448;-55
2022/07/22 04:01:20;;;;;;;10.18;2.30;;;;;;;19.11;57.12;102207.56;5169014;28;20437;-54
2022/07/22 04:04:08;;;;;;;8.40;2.72;;;;;;;19.10;56.96;102203.19;5171838;28;20447;-56
2022/07/22 04:06:41;;;;;;;7.57;2.00;;;;;;;19.10;56.97;102205.06;5166609;28;20969;-60
2022/07/22 04:09:14;;;;;;;9.25;2.05;;;;;;;19.08;57.06;102209.75;5167452;28;20430;-54
2022/07/22 04:11:47;;;;;;;5.43;1.67;;;;;;;19.08;56.91;102209.75;5165540;28;20927;-56
2022/07/22 04:14:19;;;;;;;7.65;1.73;;;;;;;19.11;56.88;102198.72;5169790;28;20499;-57
2022/07/22 04:16:52;;;;;;;7.50;1.75;;;;;;;19.08;57.00;102204.41;5166495;28;20437;-58
2022/07/22 04:19:24;;;;;;;4.35;1.50;;;;;;;19.07;56.90;102200.88;5161281;28;20404;-56
2022/07/22 04:21:57;;;;;;;4.00;1.67;;;;;;;19.11;56.94;102206.75;5165390;28;20591;-58
2022/07/22 04:24:30;;;;;;;9.38;2.30;;;;;;;19.09;56.81;102198.03;5166434;28;20399;-56
2022/07/22 04:27:21;;;;;;;8.85;2.70;;;;;;;19.06;56.93;102203.72;5162915;28;20428;-56
2022/07/22 04:29:53;;;;;;;8.30;2.03;;;;;;;18.97;57.00;102199.41;5167583;28;20425;-56
2022/07/22 04:32:25;;;;;;;3.65;1.35;;;;;;;18.95;57.03;102198.75;5175625;28;20421;-57
2022/07/22 04:34:58;;;;;;;10.70;1.70;;;;;;;18.98;56.76;102196.56;5179919;28;20486;-56
2022/07/22 04:37:30;;;;;;;7.85;1.73;;;;;;;19.03;56.57;102193.38;5178401;28;20490;-56
2022/07/22 04:40:06;;;;;;;6.88;2.00;;;;;;;19.08;56.56;102193.69;5177000;28;20406;-57
2022/07/22 04:42:38;;;;;;;7.63;1.70;;;;;;;19.12;56.53;102197.69;5175035;28;20422;-57
2022/07/22 04:45:11;;;;;;;10.00;2.20;;;;;;;19.07;56.63;102197.38;5175406;28;20411;-57
2022/07/22 04:47:44;;;;;;;6.15;1.45;;;;;;;18.98;56.78;102188.50;5164379;28;20572;-54
2022/07/22 04:50:16;;;;;;;4.32;1.63;;;;;;;19.00;56.62;102199.06;5181813;28;20426;-57
2022/07/22 04:52:48;;;;;;;7.18;2.58;;;;;;;19.01;56.63;102198.06;5174364;28;20411;-53
2022/07/22 04:55:22;;;;;;;4.95;1.65;;;;;;;19.00;56.39;102197.22;5174587;28;20402;-55
2022/07/22 04:57:54;;;;;;;5.40;1.88;;;;;;;18.95;56.41;102193.38;5178425;28;20443;-56
2022/07/22 05:00:27;;;;;;;6.63;1.85;;;;;;;19.00;56.39;102202.56;5177669;28;20415;-58
2022/07/22 05:03:00;;;;;;;7.55;1.60;;;;;;;19.03;56.36;102206.75;5179997;28;20416;-56
2022/07/22 05:05:32;;;;;;;9.65;2.10;;;;;;;19.01;56.05;102198.88;5168537;28;20484;-58
2022/07/22 05:08:06;;;;;;;8.45;1.83;;;;;;;19.09;56.20;102206.06;5180721;28;20425;-57
2022/07/22 05:10:40;;;;;;;6.30;2.30;;;;;;;19.08;56.13;102207.09;5173046;28;20956;-53
2022/07/22 05:13:14;;;;;;;5.63;2.10;;;;;;;18.88;55.96;102212.81;5173259;28;20404;-58
2022/07/22 05:15:46;;;;;;;7.30;2.00;;;;;;;19.05;56.00;102207.44;5173505;28;20470;-57
2022/07/22 05:18:19;;;;;;;8.85;2.00;;;;;;;19.06;55.79;102203.72;5175793;28;20425;-60
2022/07/22 05:20:51;;;;;;;5.28;1.75;;;;;;;19.13;55.64;102208.22;5172929;28;20972;-61
2022/07/22 05:23:23;;;;;;;7.15;1.90;;;;;;;19.22;55.48;102209.03;5164396;28;20509;-57
2022/07/22 05:25:57;;;;;;;7.57;2.17;;;;;;;19.28;55.25;102210.19;5171780;28;20594;-55
2022/07/22 05:28:30;;;;;;;6.57;2.25;;;;;;;19.32;55.26;102209.69;5183712;28;20409;-55
2022/07/22 05:31:02;;;;;;;4.40;1.92;;;;;;;19.27;55.27;102204.00;5164118;28;20911;-58
2022/07/22 05:33:34;;;;;;;4.60;1.67;;;;;;;19.36;55.13;102207.47;5165889;28;20467;-56
2022/07/22 05:36:09;;;;;;;5.88;1.65;;;;;;;19.37;55.10;102213.66;5166005;28;20938;-58
2022/07/22 05:38:41;;;;;;;5.80;1.60;;;;;;;19.30;55.01;102205.50;5159439;28;20777;-60
2022/07/22 05:41:15;;;;;;;7.03;1.70;;;;;;;19.38;54.97;102218.00;5174490;28;20427;-59
2022/07/22 05:43:47;;;;;;;5.50;1.75;;;;;;;19.43;54.67;102215.66;5185949;28;21009;-59
2022/07/22 05:46:20;;;;;;;6.30;1.58;;;;;;;19.46;54.48;102229.53;5185677;28;20493;-59
2022/07/22 05:48:52;;;;;;;3.72;1.50;;;;;;;19.50;54.32;102224.66;5178451;28;20902;-59
2022/07/22 05:51:25;;;;;;;4.32;1.73;;;;;;;19.57;54.36;102214.88;5172586;28;20432;-58
2022/07/22 05:53:58;;;;;;;6.13;1.77;;;;;;;19.63;54.30;102219.53;5171125;28;20814;-57
2022/07/22 05:56:31;;;;;;;5.17;2.00;;;;;;;19.66;54.12;102219.22;5172864;28;20453;-59
2022/07/22 05:59:04;;;;;;;5.10;1.40;;;;;;;19.57;54.18;102204.16;5175031;28;20528;-62
2022/07/22 06:01:36;;;;;;;6.85;1.30;;;;;;;19.58;54.09;102212.06;5178522;28;20763;-60
2022/07/22 06:04:08;;;;;;;7.13;1.83;;;;;;;19.56;53.96;102202.50;5165537;28;20912;-54
2022/07/22 06:06:41;;;;;;;6.63;1.97;;;;;;;19.59;53.99;102196.78;5164452;28;20604;-58
2022/07/22 06:09:14;;;;;;;3.92;1.40;;;;;;;19.71;53.82;102211.50;5151383;28;20529;-59
2022/07/22 06:11:48;;;;;;;9.68;1.77;;;;;;;19.82;53.49;102210.28;5161173;28;20424;-58
2022/07/22 06:14:20;;;;;;;6.55;2.10;;;;;;;19.86;53.27;102202.72;5155962;28;20532;-59
2022/07/22 06:16:52;;;;;;;8.15;1.90;;;;;;;19.84;53.39;102210.91;5172384;28;20840;-59
2022/07/22 06:19:25;;;;;;;6.22;1.55;;;;;;;19.81;53.41;102216.63;5170950;28;20453;-56
2022/07/22 06:21:58;;;;;;;5.18;1.70;;;;;;;19.84;53.45;102210.09;5159179;28;20419;-58
2022/07/22 06:24:30;;;;;;;6.37;1.20;;;;;;;19.82;53.15;102199.56;5167496;28;20460;-58
2022/07/22 06:27:04;;;;;;;3.85;2.10;;;;;;;19.96;53.15;102205.97;5170437;28;20407;-59
2022/07/22 06:29:37;;;;;;;5.10;1.70;;;;;;;19.99;52.96;102206.44;5161364;28;20409;-57
2022/07/22 06:32:09;;;;;;;4.68;1.52;;;;;;;19.89;53.13;102207.72;5167985;28;20421;-61
2022/07/22 06:34:42;;;;;;;7.13;1.90;;;;;;;19.64;53.24;102177.53;5160618;28;20418;-58
2022/07/22 06:37:14;;;;;;;5.20;1.52;;;;;;;19.72;53.29;102207.81;5165133;28;20422;-59
2022/07/22 06:39:47;;;;;;;4.75;1.38;;;;;;;19.62;53.21;102201.81;5160788;28;20428;-58
2022/07/22 06:42:22;;;;;;;4.00;1.60;;;;;;;19.61;53.10;102221.59;5168439;28;20762;-57
2022/07/22 06:44:54;;;;;;;4.88;1.50;;;;;;;19.62;53.03;102217.88;5170803;28;20428;-59
2022/07/22 06:47:27;;;;;;;4.35;1.40;;;;;;;19.76;52.80;102225.22;5167418;28;20484;-59
2022/07/22 06:49:59;;;;;;;4.80;1.23;;;;;;;19.82;52.57;102215.63;5157396;28;20909;-59
2022/07/22 06:52:31;;;;;;;4.07;1.50;;;;;;;19.88;52.28;102216.75;5158039;28;20460;-58
2022/07/22 06:55:04;;;;;;;3.50;1.50;;;;;;;19.92;52.13;102215.41;5154005;28;20409;-57
2022/07/22 06:57:38;;;;;;;3.55;1.23;;;;;;;20.01;51.97;102206.28;5164909;28;20420;-59
2022/07/22 07:00:12;;;;;;;4.93;1.10;;;;;;;20.12;51.73;102219.25;5156407;28;20968;-60
2022/07/22 07:02:45;;;;;;;6.20;1.58;;;;;;;20.10;51.72;102215.94;5162038;28;20905;-58
2022/07/22 07:05:17;;;;;;;4.15;1.30;;;;;;;20.03;51.72;102212.28;5160187;28;20447;-59
2022/07/22 07:07:49;;;;;;;4.18;1.50;;;;;;;20.09;51.50;102211.56;5164515;28;20546;-59
2022/07/22 07:10:22;;;;;;;6.93;1.80;;;;;;;20.19;51.26;102204.13;5174296;28;20573;-58
2022/07/22 07:12:59;;;;;;;4.50;1.70;;;;;;;20.19;51.26;102204.13;5163619;28;20445;-57
2022/07/22 07:15:31;;;;;;;5.00;1.67;;;;;;;20.23;51.20;102204.59;5167486;28;20496;-60
2022/07/22 07:18:04;;;;;;;2.88;1.08;;;;;;;20.32;50.82;102210.75;5164619;28;20424;-55
2022/07/22 07:20:37;;;;;;;5.47;1.27;;;;;;;20.35;51.10;102208.53;5164476;28;20441;-60
2022/07/22 07:23:09;;;;;;;9.23;4.68;;;;;;;20.49;50.76;102210.41;5163117;28;20936;-63
2022/07/22 07:25:42;;;;;;;5.38;1.65;;;;;;;20.60;50.79;102211.84;5166344;28;20814;-59
2022/07/22 07:28:15;;;;;;;3.03;1.15;;;;;;;20.82;50.51;102209.28;5163129;28;20445;-58
2022/07/22 07:30:48;;;;;;;4.22;1.35;;;;;;;21.05;50.08;102210.00;5166998;28;20547;-58
2022/07/22 07:33:20;;;;;;;4.10;1.20;;;;;;;21.26;49.89;102213.81;5165063;28;21006;-57
2022/07/22 07:35:53;;;;;;;2.67;1.00;;;;;;;21.46;49.50;102212.22;5161440;28;20508;-61
2022/07/22 07:38:25;;;;;;;7.50;1.17;;;;;;;21.58;49.40;102205.34;5164851;28;21240;-60
2022/07/22 07:40:58;;;;;;;4.03;1.30;;;;;;;21.74;48.96;102201.59;5165737;28;20470;-54
2022/07/22 07:43:31;;;;;;;1.33;0.77;;;;;;;21.83;48.69;102183.47;5164895;28;20417;-60
2022/07/22 07:46:04;;;;;;;4.00;0.95;;;;;;;22.13;48.38;102207.56;5155584;28;20430;-58
2022/07/22 07:48:36;;;;;;;6.82;1.27;;;;;;;22.21;48.12;102196.69;5171202;28;20416;-61
2022/07/22 07:51:09;;;;;;;1.17;1.00;;;;;;;22.43;47.73;102210.97;5164642;28;20429;-61
2022/07/22 07:53:41;;;;;;;2.92;1.25;;;;;;;22.52;47.61;102207.94;5157962;28;20431;-61
2022/07/22 07:56:14;;;;;;;2.38;0.85;;;;;;;22.61;47.25;102210.44;5165791;28;20767;-62
2022/07/22 07:58:48;;;;;;;2.63;0.90;;;;;;;22.66;46.96;102208.00;5174432;28;21031;-60
2022/07/22 08:01:20;;;;;;;3.92;1.17;;;;;;;22.69;47.14;102205.75;5173216;28;20430;-60
2022/07/22 08:03:52;;;;;;;2.97;1.02;;;;;;;22.77;46.72;102205.59;5168169;28;20456;-57
2022/07/22 08:06:25;;;;;;;4.60;1.13;;;;;;;22.89;46.29;102219.38;5162962;28;21103;-61
2022/07/22 08:08:57;;;;;;;4.03;1.08;;;;;;;23.00;46.27;102207.22;5168738;28;20976;-61
2022/07/22 08:11:30;;;;;;;2.00;1.17;;;;;;;23.12;45.94;102207.50;5170311;28;20813;-60
2022/07/22 08:14:04;;;;;;;3.10;1.13;;;;;;;23.10;45.99;102193.38;5170743;28;20388;-58
2022/07/22 08:16:36;;;;;;;2.95;1.20;;;;;;;23.29;45.53;102203.44;5190790;28;20477;-57
2022/07/22 08:19:08;;;;;;;2.37;0.93;;;;;;;23.42;45.41;102206.16;5187380;28;20409;-55
2022/07/22 08:21:42;;;;;;;3.38;1.10;;;;;;;23.48;44.84;102191.06;5171790;28;20425;-57
2022/07/22 08:24:15;;;;;;;1.23;0.70;;;;;;;23.66;44.84;102190.47;5167102;28;20451;-54
2022/07/22 08:26:47;;;;;;;5.43;0.93;;;;;;;23.71;44.65;102190.72;5169655;28;20425;-61
2022/07/22 08:29:21;;;;;;;4.93;1.20;;;;;;;23.80;44.23;102191.38;5166422;28;20469;-62
2022/07/22 08:31:53;;;;;;;2.88;1.00;;;;;;;23.78;44.11;102191.56;5151224;28;20496;-59
2022/07/22 08:34:25;;;;;;;9.40;1.23;;;;;;;23.83;44.02;102189.09;5163061;28;20464;-62
2022/07/22 08:36:58;;;;;;;5.30;1.20;;;;;;;23.90;43.88;102194.50;5159752;28;20447;-59
2022/07/22 08:39:30;;;;;;;2.10;1.02;;;;;;;23.97;43.71;102194.50;5166348;28;20505;-59
2022/07/22 08:42:04;;;;;;;4.53;1.33;;;;;;;24.05;43.56;102208.63;5158787;28;20417;-59
2022/07/22 08:44:38;;;;;;;3.70;1.40;;;;;;;23.89;43.33;102188.25;5173338;28;20423;-59
2022/07/22 08:47:10;;;;;;;2.30;0.90;;;;;;;23.64;43.68;102181.75;5160522;28;20509;-56
2022/07/22 08:49:42;;;;;;;2.37;0.70;;;;;;;23.57;43.60;102188.97;5165098;28;20552;-59
2022/07/22 08:52:15;;;;;;;3.25;0.90;;;;;;;23.46;43.59;102199.31;5161666;28;21163;-60
2022/07/22 08:54:47;;;;;;;4.95;1.45;;;;;;;23.35;43.56;102196.38;5171596;28;20783;-58
2022/07/22 08:57:20;;;;;;;3.83;1.30;;;;;;;23.30;43.66;102193.47;5161858;28;20808;-61
2022/07/22 08:59:57;;;;;;;2.38;1.23;;;;;;;23.36;43.43;102188.09;5173767;28;20623;-62
2022/07/22 09:02:38;;;;;;;2.60;0.80;;;;;;;23.45;43.13;102194.97;5171635;28;20427;-59
2022/07/22 09:05:13;;;;;;;3.97;1.20;;;;;;;23.45;43.17;102186.88;5170614;28;20556;-57
2022/07/22 09:07:47;;;;;;;2.38;1.00;;;;;;;23.30;43.34;102193.47;5182825;28;20502;-61
2022/07/22 09:10:20;;;;;;;4.57;1.30;;;;;;;23.30;43.26;102190.78;5172370;28;20907;-62
2022/07/22 09:12:58;;;;;;;3.77;1.40;;;;;;;23.25;43.19;102196.75;5170860;28;20625;-60
2022/07/22 09:15:35;;;;;;;2.90;1.10;;;;;;;23.25;42.97;102170.63;5176732;28;20784;-63
2022/07/22 09:18:09;;;;;;;2.58;1.02;;;;;;;23.15;43.06;102174.75;5176929;28;20864;-61
2022/07/22 09:20:43;;;;;;;3.28;1.55;;;;;;;23.21;43.08;102173.94;5176621;28;20903;-60
2022/07/22 09:23:21;;;;;;;7.13;1.30;;;;;;;23.29;42.98;102175.63;5174537;28;20454;-61
2022/07/22 09:25:54;;;;;;;3.75;1.10;;;;;;;23.44;42.65;102171.75;5173244;28;20437;-61
2022/07/22 09:28:26;;;;;;;4.93;1.27;;;;;;;23.54;42.73;102175.94;5170974;28;20489;-58
2022/07/22 09:31:00;;;;;;;4.05;1.20;;;;;;;23.55;42.63;102172.19;5164901;28;20904;-59
2022/07/22 09:33:34;;;;;;;3.88;0.80;;;;;;;23.28;42.86;102172.09;5163943;28;20423;-62
2022/07/22 09:36:07;;;;;;;2.13;1.10;;;;;;;23.11;43.24;102184.28;5160552;28;20591;-59
2022/07/22 09:38:39;;;;;;;5.25;1.65;;;;;;;22.86;43.15;102176.66;5172256;28;20432;-55
2022/07/22 09:41:13;;;;;;;4.45;1.33;;;;;;;22.83;43.00;102171.66;5168534;28;20438;-60
2022/07/22 09:43:46;;;;;;;3.45;1.15;;;;;;;22.66;43.03;102151.47;5156969;28;20746;-57
2022/07/22 09:46:37;;;;;;;4.40;0.90;;;;;;;22.74;43.13;102178.25;5163268;28;20459;-59
2022/07/22 09:49:10;;;;;;;5.57;1.25;;;;;;;22.70;42.90;102160.78;5166532;28;20909;-58
2022/07/22 09:51:43;;;;;;;10.68;1.70;;;;;;;23.15;42.58;102185.53;5166994;28;20425;-61
2022/07/22 09:54:15;;;;;;;3.97;1.40;;;;;;;23.43;42.39;102188.94;5171060;28;20500;-59
2022/07/22 09:56:49;;;;;;;3.42;0.70;;;;;;;23.39;42.29;102182.31;5176873;28;20796;-59
2022/07/22 09:59:21;;;;;;;2.45;0.90;;;;;;;22.64;42.73;102096.97;5173692;28;20432;-56
2022/07/22 10:01:59;;;;;;;5.60;1.00;;;;;;;23.00;42.97;102185.66;5162039;28;20439;-59
2022/07/22 10:04:35;;;;;;;3.97;1.13;;;;;;;22.96;42.75;102179.84;5172635;28;20472;-56
2022/07/22 10:07:08;;;;;;;2.72;0.85;;;;;;;23.09;42.62;102187.16;5177368;28;20600;-63
2022/07/22 10:09:40;;;;;;;4.47;1.00;;;;;;;23.31;42.49;102187.88;5174212;28;20410;-59
2022/07/22 10:12:14;;;;;;;5.40;1.17;;;;;;;23.55;41.97;102191.06;5176660;28;20446;-60
2022/07/22 10:14:47;;;;;;;3.10;1.30;;;;;;;23.78;41.83;102196.94;5174699;28;20435;-61
2022/07/22 10:17:21;;;;;;;3.88;1.10;;;;;;;23.89;41.65;102188.25;5176435;28;20927;-60
2022/07/22 10:19:54;;;;;;;3.88;0.82;;;;;;;23.90;41.61;102173.72;5175582;28;20899;-61
2022/07/22 10:22:53;;;;;;;2.30;0.90;;;;;;;24.13;41.45;102194.09;5175575;28;20532;-59
2022/07/22 10:25:29;;;;;;;2.97;1.17;;;;;;;24.23;41.32;102182.91;5177648;28;20419;-60
2022/07/22 10:28:05;;;;;;;3.17;1.25;;;;;;;24.15;41.45;102165.03;5175369;28;20504;-62
2022/07/22 10:30:40;;;;;;;2.00;1.23;;;;;;;24.33;41.21;102200.31;5172207;28;20480;-61
2022/07/22 10:33:17;;;;;;;3.20;1.47;;;;;;;24.14;41.44;102187.66;5173018;28;20419;-61
2022/07/22 10:35:59;;;;;;;2.80;1.15;;;;;;;24.10;41.33;102186.44;5182514;28;20434;-62
2022/07/22 10:38:33;;;;;;;5.47;1.30;;;;;;;24.11;41.37;102177.28;5175180;28;20419;-57
2022/07/22 10:41:07;;;;;;;2.97;1.20;;;;;;;24.30;41.24;102183.72;5177896;28;20418;-60
2022/07/22 10:43:48;;;;;;;10.50;2.53;;;;;;;24.07;41.44;102187.66;5180187;28;20442;-55
2022/07/22 10:47:02;;;;;;;3.28;1.30;;;;;;;24.11;41.43;102188.06;5181400;28;20826;-58
2022/07/22 10:49:35;;;;;;;3.67;1.30;;;;;;;24.10;41.16;102162.13;5178203;28;20411;-62
2022/07/22 10:52:16;;;;;;;2.70;1.02;;;;;;;24.36;41.23;102178.31;5172100;28;20913;-59
2022/07/22 10:55:21;;;;;;;8.13;1.50;;;;;;;24.58;40.98;102180.81;5158755;28;20414;-62
2022/07/22 10:57:53;;;;;;;5.10;1.10;;;;;;;24.77;40.73;102190.72;5160848;28;20437;-63
2022/07/22 11:00:27;;;;;;;3.23;1.40;;;;;;;24.92;40.70;102181.56;5159972;28;20477;-63
2022/07/22 11:02:59;;;;;;;4.07;1.30;;;;;;;25.14;40.38;102182.13;5155071;28;20555;-63
2022/07/22 11:05:34;;;;;;;4.25;1.27;;;;;;;25.23;40.25;102178.16;5161306;28;20499;-64
2022/07/22 11:08:10;;;;;;;3.53;1.50;;;;;;;25.28;40.18;102195.38;5163484;28;20454;-63
2022/07/22 11:10:49;;;;;;;3.05;1.10;;;;;;;25.25;40.37;102187.72;5171666;28;20423;-54
2022/07/22 11:13:33;;;;;;;4.85;1.20;;;;;;;25.01;40.38;102164.06;5170973;28;20489;-63
2022/07/22 11:16:17;;;;;;;3.40;1.17;;;;;;;24.62;40.51;102144.22;5174323;28;20508;-59
2022/07/22 11:18:52;;;;;;;5.73;1.30;;;;;;;24.48;40.69;102161.50;5168137;28;20514;-58
2022/07/22 11:21:31;;;;;;;3.22;1.08;;;;;;;24.59;40.70;102163.56;5185730;28;20424;-63
2022/07/22 11:24:07;;;;;;;5.75;1.20;;;;;;;24.62;40.46;102155.03;5192759;28;20437;-62
2022/07/22 11:26:44;;;;;;;3.13;0.88;;;;;;;24.40;40.10;102086.91;5185154;28;20417;-48
2022/07/22 11:29:25;;;;;;;6.10;1.27;;;;;;;25.05;39.98;102159.88;5187036;28;20414;-64
2022/07/22 11:31:59;;;;;;;4.68;0.90;;;;;;;25.15;39.75;102149.50;5180678;28;20421;-62
2022/07/22 11:34:32;;;;;;;2.38;0.90;;;;;;;25.37;39.57;102157.28;5180358;28;20407;-61
2022/07/22 11:37:06;;;;;;;2.95;1.10;;;;;;;25.51;39.29;102154.28;5177941;28;20768;-65
2022/07/22 11:39:39;;;;;;;3.25;0.95;;;;;;;25.60;39.13;102146.72;5172180;28;20418;-65
2022/07/22 11:42:12;;;;;;;4.80;1.25;;;;;;;25.43;39.11;102107.75;5168282;28;20443;-60
2022/07/22 11:44:44;;;;;;;2.70;0.73;;;;;;;25.72;38.92;102147.69;5170940;28;20557;-62
2022/07/22 11:47:16;;;;;;;3.00;0.80;;;;;;;25.77;38.87;102145.16;5165142;28;20859;-58
2022/07/22 11:49:49;;;;;;;2.03;1.00;;;;;;;25.86;38.64;102139.50;5165671;28;20425;-58
2022/07/22 11:52:23;;;;;;;2.28;0.90;;;;;;;25.93;38.52;102134.88;5165656;28;20901;-63
2022/07/22 11:54:55;;;;;;;2.70;0.80;;;;;;;26.08;38.49;102138.09;5169794;28;20525;-60